Time;durP1;ratioP1;P1;durP2;ratioP2;P2;SDS_P1;SDS_P2;PMS_P1;PMS_P2;Temp;Humidity;BMP_temperature;BMP_pressure;BME280_temperature;BME280_humidity;BME280_pressure;Samples;Min_cycle;Max_cycle;Signal;HPM_P1;HPM_P2
2023/07/11 00:00:43;;;;;;;0.00;0.00;;;;;;;17.14;94.29;101499.13;5052699;28;20106;-49
2023/07/11 00:03:10;;;;;;;0.00;0.00;;;;;;;17.13;93.97;101492.16;5052294;28;20108;-49
2023/07/11 00:05:36;;;;;;;0.00;0.00;;;;;;;17.00;95.62;101490.25;5052661;28;20368;-47
2023/07/11 00:08:02;;;;;;;0.00;0.00;;;;;;;16.95;96.08;101492.78;5053110;28;20035;-48
2023/07/11 00:10:28;;;;;;;0.00;0.00;;;;;;;16.87;96.50;101491.78;5051937;28;20120;-46
2023/07/11 00:12:53;;;;;;;0.03;0.03;;;;;;;16.77;96.58;101481.25;5052787;28;20049;-47
2023/07/11 00:15:19;;;;;;;0.00;0.00;;;;;;;16.61;97.55;101487.94;5052867;28;20029;-48
2023/07/11 00:17:46;;;;;;;0.00;0.00;;;;;;;16.47;98.15;101484.25;5051754;28;20025;-47
2023/07/11 00:20:13;;;;;;;0.00;0.00;;;;;;;16.45;98.52;101479.03;5052825;28;20100;-49
2023/07/11 00:22:39;;;;;;;0.00;0.00;;;;;;;16.36;99.02;101476.31;5052319;28;20052;-49
2023/07/11 00:25:06;;;;;;;0.00;0.00;;;;;;;16.36;99.35;101476.31;5052211;28;20025;-48
2023/07/11 00:27:31;;;;;;;0.15;0.10;;;;;;;16.29;99.45;101474.44;5052393;28;20450;-47
2023/07/11 00:29:56;;;;;;;0.00;0.00;;;;;;;16.20;100.00;101464.75;5052659;28;20524;-48
2023/07/11 00:32:22;;;;;;;0.00;0.00;;;;;;;16.24;100.00;101471.78;5052147;28;20060;-49
2023/07/11 00:34:47;;;;;;;0.00;0.00;;;;;;;16.12;100.00;101469.84;5052844;28;20477;-47
2023/07/11 00:37:14;;;;;;;0.00;0.00;;;;;;;16.07;100.00;101471.47;5052524;28;20017;-48
2023/07/11 00:39:39;;;;;;;0.10;0.10;;;;;;;15.98;100.00;101468.72;5051831;28;20025;-48
2023/07/11 00:42:07;;;;;;;0.00;0.00;;;;;;;15.90;100.00;101472.94;5052590;28;20091;-49
2023/07/11 00:44:55;;;;;;;0.00;0.00;;;;;;;15.80;100.00;101480.53;5052279;28;20063;-46
2023/07/11 00:47:23;;;;;;;0.00;0.00;;;;;;;15.67;100.00;101472.47;5052722;28;20029;-49
2023/07/11 00:49:51;;;;;;;;;;;;;;;15.87;100.00;101471.16;5052822;28;20393;-49
2023/07/11 00:52:17;;;;;;;0.00;0.00;;;;;;;15.48;100.00;101469.53;5051867;28;19956;-50
2023/07/11 00:54:54;;;;;;;0.00;0.00;;;;;;;15.45;100.00;101480.75;5052245;28;20029;-49
2023/07/11 00:57:23;;;;;;;0.08;0.08;;;;;;;15.45;100.00;101470.38;5052505;28;20155;-45
2023/07/11 00:59:51;;;;;;;0.00;0.00;;;;;;;15.27;100.00;101472.56;5051866;28;20028;-47
2023/07/11 01:02:21;;;;;;;0.00;0.00;;;;;;;15.17;100.00;101476.72;5052486;28;20033;-46
2023/07/11 01:04:47;;;;;;;0.10;0.10;;;;;;;15.26;100.00;101478.59;5053523;28;20025;-48
2023/07/11 01:07:28;;;;;;;0.00;0.00;;;;;;;15.27;100.00;101482.97;5055513;28;20029;-48
2023/07/11 01:09:53;;;;;;;0.00;0.00;;;;;;;15.15;100.00;101476.66;5056408;28;20025;-46
2023/07/11 01:12:20;;;;;;;0.00;0.00;;;;;;;15.17;100.00;101486.22;5056544;28;20047;-48
2023/07/11 01:14:48;;;;;;;0.00;0.00;;;;;;;15.15;100.00;101473.22;5055057;28;20025;-49
2023/07/11 01:17:29;;;;;;;0.00;0.00;;;;;;;15.17;100.00;101473.22;5056133;28;20032;-45
2023/07/11 01:19:56;;;;;;;0.15;0.05;;;;;;;15.09;100.00;101473.97;5055294;28;20469;-44
2023/07/11 01:22:23;;;;;;;0.00;0.00;;;;;;;14.93;100.00;101477.94;5055793;28;20045;-48
2023/07/11 01:24:50;;;;;;;0.00;0.00;;;;;;;14.77;100.00;101473.25;5055962;28;20029;-45
2023/07/11 01:27:15;;;;;;;0.10;0.10;;;;;;;14.67;100.00;101459.22;5055028;28;20069;-47
2023/07/11 01:29:41;;;;;;;0.08;0.08;;;;;;;14.72;100.00;101461.88;5055459;28;20033;-48
2023/07/11 01:32:08;;;;;;;0.00;0.00;;;;;;;14.73;100.00;101461.06;5055920;28;20055;-49
2023/07/11 01:34:33;;;;;;;0.10;0.10;;;;;;;14.65;100.00;101468.66;5054590;28;20429;-47
2023/07/11 01:36:59;;;;;;;0.00;0.00;;;;;;;14.75;100.00;101457.66;5055659;28;20827;-48
2023/07/11 01:39:24;;;;;;;0.00;0.00;;;;;;;14.78;100.00;101459.44;5055532;28;20021;-48
2023/07/11 01:41:49;;;;;;;0.00;0.00;;;;;;;14.76;100.00;101443.84;5054883;28;20388;-48
2023/07/11 01:44:15;;;;;;;0.00;0.00;;;;;;;14.75;100.00;101442.09;5055618;28;20025;-47
2023/07/11 01:46:40;;;;;;;0.00;0.00;;;;;;;14.74;100.00;101437.72;5055324;28;20021;-49
2023/07/11 01:49:05;;;;;;;0.00;0.00;;;;;;;14.72;100.00;101434.25;5054705;28;20061;-48
2023/07/11 01:51:31;;;;;;;0.10;0.10;;;;;;;14.70;100.00;101435.06;5055187;28;20103;-48
2023/07/11 01:53:57;;;;;;;0.05;0.05;;;;;;;14.66;100.00;101421.13;5055551;28;20124;-47
2023/07/11 01:56:22;;;;;;;0.10;0.10;;;;;;;14.51;100.00;101423.34;5054773;28;20111;-44
2023/07/11 01:58:47;;;;;;;0.10;0.10;;;;;;;14.60;100.00;101426.13;5055338;28;20025;-48
2023/07/11 02:01:13;;;;;;;0.00;0.00;;;;;;;14.65;100.00;101424.56;5055411;28;20032;-49
2023/07/11 02:03:38;;;;;;;0.00;0.00;;;;;;;14.42;100.00;101422.31;5054131;28;20033;-48
2023/07/11 02:06:04;;;;;;;0.08;0.08;;;;;;;14.45;100.00;101419.78;5055121;28;20159;-50
2023/07/11 02:08:29;;;;;;;0.10;0.10;;;;;;;14.31;100.00;101423.78;5055092;28;20040;-49
2023/07/11 02:10:54;;;;;;;0.08;0.08;;;;;;;14.28;100.00;101418.50;5054454;28;20028;-49
2023/07/11 02:13:20;;;;;;;0.00;0.00;;;;;;;14.29;100.00;101412.47;5055069;28;20114;-47
2023/07/11 02:15:46;;;;;;;0.00;0.00;;;;;;;14.37;100.00;101405.78;5054451;28;20025;-49
2023/07/11 02:18:11;;;;;;;0.00;0.00;;;;;;;14.33;100.00;101406.50;5054018;28;20024;-46
2023/07/11 02:20:44;;;;;;;0.00;0.00;;;;;;;14.31;100.00;101406.47;5054528;28;20029;-48
2023/07/11 02:23:10;;;;;;;0.00;0.00;;;;;;;14.28;100.00;101397.75;5054643;28;20041;-48
2023/07/11 02:25:37;;;;;;;0.00;0.00;;;;;;;14.28;100.00;101389.97;5054329;28;20021;-47
2023/07/11 02:28:03;;;;;;;0.00;0.00;;;;;;;14.30;100.00;101393.50;5054910;28;20025;-49
2023/07/11 02:30:28;;;;;;;0.00;0.00;;;;;;;14.32;100.00;101384.03;5053706;28;20066;-49
2023/07/11 02:32:53;;;;;;;0.00;0.00;;;;;;;14.33;100.00;101380.59;5054631;28;20029;-48
2023/07/11 02:35:19;;;;;;;0.00;0.00;;;;;;;14.24;100.00;101375.19;5054888;28;20105;-49
2023/07/11 02:37:44;;;;;;;0.10;0.10;;;;;;;14.23;100.00;101376.94;5053701;28;20132;-48
2023/07/11 02:40:09;;;;;;;0.00;0.00;;;;;;;14.22;100.00;101374.31;5054689;28;20078;-49
2023/07/11 02:42:35;;;;;;;0.10;0.10;;;;;;;14.15;100.00;101368.97;5054193;28;20373;-48
2023/07/11 02:45:00;;;;;;;0.03;0.03;;;;;;;14.13;100.00;101370.63;5053822;28;20029;-47
2023/07/11 02:47:25;;;;;;;0.00;0.00;;;;;;;14.12;100.00;101366.28;5054153;28;20388;-47
2023/07/11 02:49:51;;;;;;;0.00;0.00;;;;;;;14.15;100.00;101368.97;5054320;28;20055;-47
2023/07/11 02:52:16;;;;;;;0.10;0.10;;;;;;;14.19;100.00;101366.44;5053355;28;20061;-47
2023/07/11 02:54:41;;;;;;;0.00;0.00;;;;;;;14.13;100.00;101357.69;5054140;28;20052;-49
2023/07/11 02:57:08;;;;;;;0.10;0.10;;;;;;;14.15;100.00;101355.09;5054236;28;20025;-47
2023/07/11 02:59:33;;;;;;;0.10;0.10;;;;;;;14.15;100.00;101353.41;5053216;28;20021;-48
2023/07/11 03:01:59;;;;;;;0.10;0.10;;;;;;;14.20;100.00;101350.03;5054101;28;20040;-48
2023/07/11 03:04:26;;;;;;;0.10;0.10;;;;;;;14.07;100.00;101352.38;5053962;28;20028;-48
2023/07/11 03:06:54;;;;;;;0.10;0.10;;;;;;;14.32;100.00;101352.94;5053529;28;20024;-49
2023/07/11 03:09:19;;;;;;;0.10;0.10;;;;;;;14.22;100.00;101345.78;5053993;28;20029;-47
2023/07/11 03:11:45;;;;;;;0.10;0.10;;;;;;;14.23;100.00;101340.63;5053695;28;20032;-49
2023/07/11 03:14:10;;;;;;;0.03;0.03;;;;;;;14.24;100.00;101336.31;5053117;28;20041;-48
2023/07/11 03:16:35;;;;;;;0.10;0.10;;;;;;;14.27;100.00;101328.63;5053595;28;20025;-47
2023/07/11 03:19:01;;;;;;;0.00;0.00;;;;;;;14.23;100.00;101324.19;5053721;28;20433;-48
2023/07/11 03:21:26;;;;;;;0.05;0.05;;;;;;;14.24;100.00;101324.25;5052411;28;20484;-48
2023/07/11 03:23:51;;;;;;;0.00;0.00;;;;;;;14.32;100.00;101321.81;5053652;28;20033;-49
2023/07/11 03:26:16;;;;;;;0.00;0.00;;;;;;;14.30;100.00;101323.47;5053791;28;20033;-47
2023/07/11 03:28:42;;;;;;;0.10;0.10;;;;;;;14.44;100.00;101314.28;5051842;28;20044;-47
2023/07/11 03:31:07;;;;;;;0.00;0.00;;;;;;;14.44;100.00;101316.88;5053535;28;20129;-48
2023/07/11 03:33:32;;;;;;;0.05;0.05;;;;;;;14.53;100.00;101317.94;5052386;28;20036;-45
2023/07/11 03:35:58;;;;;;;0.10;0.10;;;;;;;14.46;100.00;101310.00;5053623;28;20036;-48
2023/07/11 03:38:23;;;;;;;0.10;0.10;;;;;;;14.56;100.00;101307.59;5053260;28;20021;-43
2023/07/11 03:40:48;;;;;;;0.10;0.10;;;;;;;14.71;100.00;101309.69;5052759;28;20024;-47
2023/07/11 03:43:14;;;;;;;0.10;0.10;;;;;;;14.72;100.00;101312.31;5053164;28;20538;-49
2023/07/11 03:45:42;;;;;;;0.00;0.00;;;;;;;14.88;100.00;101312.59;5053020;28;20025;-49
2023/07/11 03:48:07;;;;;;;0.00;0.00;;;;;;;14.81;100.00;101312.47;5052743;28;20028;-47
2023/07/11 03:50:32;;;;;;;0.10;0.10;;;;;;;14.70;100.00;101307.91;5053119;28;20025;-47
2023/07/11 03:52:58;;;;;;;0.00;0.00;;;;;;;14.68;100.00;101315.69;5053358;28;20079;-48
2023/07/11 03:55:23;;;;;;;0.08;0.08;;;;;;;14.76;100.00;101313.25;5052032;28;20132;-44
2023/07/11 03:57:48;;;;;;;0.00;0.00;;;;;;;14.72;100.00;101312.31;5053147;28;20021;-46
2023/07/11 04:00:14;;;;;;;0.10;0.10;;;;;;;14.73;100.00;101311.47;5052960;28;20079;-47
2023/07/11 04:02:39;;;;;;;0.10;0.10;;;;;;;14.67;100.00;101308.72;5051896;28;20039;-49
2023/07/11 04:05:05;;;;;;;0.00;0.00;;;;;;;14.72;100.00;101304.50;5053114;28;20027;-47
2023/07/11 04:07:30;;;;;;;0.00;0.00;;;;;;;14.66;100.00;101301.78;5052877;28;20040;-49
2023/07/11 04:09:55;;;;;;;0.08;0.08;;;;;;;14.71;100.00;101299.31;5052232;28;20029;-47
2023/07/11 04:12:21;;;;;;;0.00;0.00;;;;;;;14.79;100.00;101301.19;5052994;28;20078;-48
2023/07/11 04:14:46;;;;;;;0.10;0.10;;;;;;;14.74;100.00;101300.22;5052573;28;20496;-47
2023/07/11 04:17:11;;;;;;;0.10;0.10;;;;;;;14.90;100.00;101303.09;5052118;28;20091;-47
2023/07/11 04:19:36;;;;;;;0.00;0.00;;;;;;;15.06;100.00;101296.50;5052757;28;20036;-48
2023/07/11 04:22:02;;;;;;;0.10;0.10;;;;;;;15.11;100.00;101295.72;5052577;28;20045;-49
2023/07/11 04:24:27;;;;;;;0.10;0.10;;;;;;;15.14;100.00;101290.59;5051917;28;20025;-48
2023/07/11 04:26:53;;;;;;;0.08;0.08;;;;;;;15.17;100.00;101289.78;5052792;28;20503;-47
2023/07/11 04:29:18;;;;;;;0.05;0.05;;;;;;;15.29;100.00;101283.94;5052801;28;20026;-48
2023/07/11 04:31:43;;;;;;;0.10;0.10;;;;;;;15.29;100.00;101282.19;5051565;28;20052;-46
2023/07/11 04:34:08;;;;;;;0.00;0.00;;;;;;;15.36;100.00;101280.56;5052835;28;20025;-48
2023/07/11 04:36:34;;;;;;;0.00;0.00;;;;;;;15.50;100.00;101279.94;5052281;28;20405;-48
2023/07/11 04:39:00;;;;;;;0.10;0.10;;;;;;;15.60;100.00;101271.44;5053949;28;20116;-44
2023/07/11 04:41:25;;;;;;;0.10;0.10;;;;;;;15.67;100.00;101273.25;5056612;28;20029;-47
2023/07/11 04:43:50;;;;;;;0.03;0.03;;;;;;;15.83;100.00;101273.53;5056362;28;20060;-45
2023/07/11 04:46:16;;;;;;;0.00;0.00;;;;;;;15.98;100.00;101268.56;5056407;28;20346;-48
2023/07/11 04:48:41;;;;;;;0.00;0.00;;;;;;;16.16;100.00;101262.72;5056538;28;20453;-47
2023/07/11 04:51:08;;;;;;;0.00;0.00;;;;;;;16.27;100.00;101263.75;5055923;28;20400;-48
2023/07/11 04:53:34;;;;;;;0.00;0.00;;;;;;;16.44;100.00;101260.50;5056495;28;20032;-49
2023/07/11 04:56:08;;;;;;;0.00;0.00;;;;;;;16.54;100.00;101256.25;5056483;28;20021;-48
2023/07/11 04:58:35;;;;;;;0.03;0.03;;;;;;;16.67;100.00;101262.47;5055267;28;20553;-45
2023/07/11 05:01:01;;;;;;;0.05;0.05;;;;;;;16.79;100.00;101255.66;5056237;28;20112;-50
2023/07/11 05:03:27;;;;;;;0.10;0.10;;;;;;;16.91;100.00;101259.28;5056110;28;20439;-49
2023/07/11 05:05:52;;;;;;;0.00;0.00;;;;;;;17.01;100.00;101253.31;5055687;28;20025;-47
2023/07/11 05:08:17;;;;;;;0.00;0.00;;;;;;;17.15;100.00;101253.44;5056406;28;20032;-47
2023/07/11 05:11:05;;;;;;;0.08;0.08;;;;;;;17.27;99.60;101250.06;5055915;28;20472;-48
2023/07/11 05:13:32;;;;;;;0.10;0.10;;;;;;;17.38;98.35;101247.56;5055065;28;20480;-46
2023/07/11 05:16:03;;;;;;;0.00;0.00;;;;;;;17.52;96.78;101250.25;5056226;28;20056;-45
2023/07/11 05:18:28;;;;;;;0.00;0.00;;;;;;;17.59;96.73;101242.50;5055706;28;20523;-46
2023/07/11 05:20:55;;;;;;;0.10;0.10;;;;;;;17.72;95.32;101242.59;5055382;28;20029;-47
2023/07/11 05:23:22;;;;;;;0.00;0.00;;;;;;;17.83;95.01;101237.44;5055862;28;20052;-48
2023/07/11 05:25:48;;;;;;;;;;;;;;;17.87;96.21;101229.66;5056375;28;20025;-47
2023/07/11 05:28:14;;;;;;;0.00;0.00;;;;;;;18.01;92.90;101231.47;5055154;28;20360;-48
2023/07/11 05:30:39;;;;;;;0.00;0.00;;;;;;;18.11;91.81;101225.44;5055669;28;20036;-47
2023/07/11 05:33:05;;;;;;;0.00;0.00;;;;;;;18.21;91.77;101226.34;5055703;28;20025;-45
2023/07/11 05:35:30;;;;;;;0.05;0.05;;;;;;;18.34;89.55;101232.50;5055510;28;20025;-46
2023/07/11 05:37:55;;;;;;;0.00;0.00;;;;;;;18.47;88.97;101222.97;5055763;28;20420;-44
2023/07/11 05:40:21;;;;;;;0.00;0.00;;;;;;;18.57;87.78;101224.75;5054925;28;20106;-47
2023/07/11 05:42:46;;;;;;;0.00;0.00;;;;;;;18.67;88.09;101223.00;5055334;28;20534;-45
2023/07/11 05:45:12;;;;;;;0.00;0.00;;;;;;;18.76;87.45;101223.03;5055613;28;20032;-49
2023/07/11 05:47:37;;;;;;;0.00;0.00;;;;;;;18.85;86.74;101222.16;5054721;28;20055;-48
2023/07/11 05:50:03;;;;;;;0.10;0.00;;;;;;;18.94;85.36;101211.78;5054914;28;20374;-44
2023/07/11 05:52:28;;;;;;;0.10;0.00;;;;;;;19.08;84.16;101212.66;5055433;28;20029;-45
2023/07/11 05:54:53;;;;;;;0.00;0.00;;;;;;;19.18;83.96;101212.66;5054753;28;20021;-45
2023/07/11 05:57:18;;;;;;;0.00;0.00;;;;;;;19.30;83.56;101211.75;5055317;28;20037;-46
2023/07/11 05:59:44;;;;;;;0.00;0.00;;;;;;;19.36;83.62;101207.41;5055219;28;20018;-44
2023/07/11 06:02:09;;;;;;;0.00;0.00;;;;;;;19.46;82.08;101203.03;5054303;28;20056;-46
2023/07/11 06:04:35;;;;;;;0.08;0.08;;;;;;;19.60;80.95;101194.28;5055038;28;20024;-45
2023/07/11 06:07:00;;;;;;;0.05;0.05;;;;;;;19.71;79.06;101197.75;5055396;28;20068;-43
2023/07/11 06:09:25;;;;;;;0.00;0.00;;;;;;;19.83;78.21;101196.88;5053998;28;20032;-46
2023/07/11 06:11:51;;;;;;;0.00;0.00;;;;;;;19.92;78.14;101196.84;5055070;28;20021;-46
2023/07/11 06:14:17;;;;;;;0.05;0.05;;;;;;;20.00;77.39;101194.19;5055188;28;20021;-45
2023/07/11 06:16:43;;;;;;;0.00;0.00;;;;;;;20.11;78.28;101197.63;5053996;28;20028;-46
2023/07/11 06:19:09;;;;;;;0.00;0.00;;;;;;;20.17;76.90;101202.00;5055049;28;20025;-48
2023/07/11 06:21:35;;;;;;;0.10;0.10;;;;;;;20.27;77.17;101193.22;5054397;28;20053;-45
2023/07/11 06:24:00;;;;;;;0.00;0.00;;;;;;;20.33;75.95;101193.16;5054028;28;20033;-44
2023/07/11 06:26:26;;;;;;;0.00;0.00;;;;;;;20.38;75.34;101191.38;5054429;28;20114;-49
2023/07/11 06:28:51;;;;;;;0.05;0.00;;;;;;;20.43;73.85;101187.91;5054887;28;20028;-45
2023/07/11 06:31:16;;;;;;;0.00;0.00;;;;;;;20.49;73.88;101185.22;5054044;28;20020;-46
2023/07/11 06:33:42;;;;;;;0.00;0.00;;;;;;;20.58;74.93;101192.16;5054482;28;20550;-44
2023/07/11 06:36:08;;;;;;;0.00;0.00;;;;;;;20.63;74.33;101188.66;5054768;28;20524;-43
2023/07/11 06:38:34;;;;;;;0.00;0.00;;;;;;;20.74;75.30;101190.34;5053598;28;20025;-48
2023/07/11 06:41:00;;;;;;;0.15;0.10;;;;;;;20.86;74.38;101188.50;5054910;28;20029;-46
2023/07/11 06:43:27;;;;;;;0.00;0.00;;;;;;;20.92;73.08;101184.09;5053385;28;20474;-44
2023/07/11 06:45:54;;;;;;;0.00;0.00;;;;;;;20.98;72.60;101184.91;5054520;28;20345;-45
2023/07/11 06:48:21;;;;;;;0.00;0.00;;;;;;;21.04;71.82;101187.50;5054549;28;20032;-44
2023/07/11 06:50:52;;;;;;;0.00;0.00;;;;;;;21.15;72.43;101178.63;5053369;28;20120;-45
2023/07/11 06:53:19;;;;;;;0.00;0.00;;;;;;;21.27;73.71;101177.69;5054176;28;20032;-45
2023/07/11 06:55:47;;;;;;;0.00;0.00;;;;;;;21.45;73.15;101192.38;5054183;28;20109;-48
2023/07/11 06:58:12;;;;;;;0.00;0.00;;;;;;;21.50;70.38;101180.94;5053407;28;20491;-46
2023/07/11 07:00:38;;;;;;;0.00;0.00;;;;;;;21.59;70.70;101184.34;5053912;28;20099;-43
2023/07/11 07:03:03;;;;;;;0.00;0.00;;;;;;;21.65;69.96;101184.31;5053051;28;20105;-43
2023/07/11 07:05:28;;;;;;;0.00;0.00;;;;;;;21.74;68.52;101178.09;5053097;28;20068;-47
2023/07/11 07:07:53;;;;;;;0.00;0.00;;;;;;;21.78;66.80;101179.78;5054052;28;20509;-47
2023/07/11 07:10:19;;;;;;;0.00;0.00;;;;;;;21.91;67.65;101184.00;5054296;28;20032;-43
2023/07/11 07:12:44;;;;;;;0.10;0.10;;;;;;;21.92;66.77;101180.47;5053091;28;20462;-48
2023/07/11 07:15:10;;;;;;;0.00;0.00;;;;;;;22.04;67.41;101182.97;5054093;28;20032;-44
2023/07/11 07:17:35;;;;;;;0.00;0.00;;;;;;;22.07;66.04;101173.31;5053579;28;20108;-48
2023/07/11 07:20:00;;;;;;;0.00;0.00;;;;;;;22.15;67.38;101181.97;5052859;28;20021;-47
2023/07/11 07:22:25;;;;;;;0.00;0.00;;;;;;;22.29;65.43;101171.28;5053087;28;20037;-45
2023/07/11 07:24:51;;;;;;;0.13;0.10;;;;;;;22.36;65.12;101176.44;5053836;28;20056;-46
2023/07/11 07:27:17;;;;;;;0.00;0.00;;;;;;;22.51;65.33;101171.84;5052928;28;20064;-44
2023/07/11 07:29:42;;;;;;;0.00;0.00;;;;;;;22.58;63.80;101172.63;5053413;28;20048;-47
2023/07/11 07:32:08;;;;;;;0.00;0.00;;;;;;;22.73;63.53;101171.53;5053760;28;20048;-45
2023/07/11 07:34:33;;;;;;;0.00;0.00;;;;;;;22.82;61.46;101174.00;5052515;28;20025;-45
2023/07/11 07:36:59;;;;;;;0.00;0.00;;;;;;;22.99;62.00;101173.72;5053410;28;20024;-51
2023/07/11 07:39:24;;;;;;;0.00;0.00;;;;;;;23.22;61.63;101170.72;5053134;28;20037;-45
2023/07/11 07:41:49;;;;;;;0.00;0.00;;;;;;;23.16;59.50;101160.31;5052718;28;20063;-43
2023/07/11 07:44:15;;;;;;;0.00;0.00;;;;;;;23.29;58.77;101159.22;5053258;28;20025;-46
2023/07/11 07:46:40;;;;;;;0.00;0.00;;;;;;;23.50;59.95;101164.97;5053125;28;20033;-47
2023/07/11 07:49:05;;;;;;;0.00;0.00;;;;;;;23.45;56.89;101157.16;5052452;28;20067;-47
2023/07/11 07:51:31;;;;;;;0.00;0.00;;;;;;;23.55;58.41;101152.59;5052942;28;20048;-44
2023/07/11 07:53:56;;;;;;;0.00;0.00;;;;;;;23.58;54.95;101152.50;5052291;28;20037;-43
2023/07/11 07:56:23;;;;;;;0.00;0.00;;;;;;;23.80;56.10;101155.56;5053253;28;20484;-42
2023/07/11 07:58:49;;;;;;;;;;;;;;;23.85;58.72;101155.50;5053634;28;20033;-43
2023/07/11 08:01:17;;;;;;;0.00;0.00;;;;;;;23.99;55.60;101153.47;5052460;28;19917;-42
2023/07/11 08:03:42;;;;;;;0.00;0.00;;;;;;;24.14;57.00;101156.66;5052809;28;20029;-44
2023/07/11 08:06:09;;;;;;;0.00;0.00;;;;;;;24.17;53.05;101153.97;5052864;28;20487;-44
2023/07/11 08:08:34;;;;;;;0.00;0.00;;;;;;;24.32;52.58;101148.34;5051885;28;20066;-43
2023/07/11 08:11:01;;;;;;;0.00;0.00;;;;;;;24.42;52.21;101150.78;5053055;28;20275;-44
2023/07/11 08:13:27;;;;;;;0.00;0.00;;;;;;;24.37;51.78;101139.47;5052174;28;20358;-46
2023/07/11 08:15:52;;;;;;;0.00;0.00;;;;;;;24.45;50.86;101145.41;5052166;28;20511;-41
2023/07/11 08:18:17;;;;;;;0.00;0.00;;;;;;;24.52;52.05;101146.13;5053167;28;20025;-47
2023/07/11 08:20:43;;;;;;;0.00;0.00;;;;;;;24.60;53.23;101150.31;5052434;28;20395;-46
2023/07/11 08:23:08;;;;;;;0.00;0.00;;;;;;;24.62;51.39;101143.25;5051645;28;20408;-45
2023/07/11 08:25:36;;;;;;;0.00;0.00;;;;;;;24.76;50.45;101145.56;5052700;28;20041;-45
2023/07/11 08:28:02;;;;;;;0.00;0.00;;;;;;;24.86;51.21;101135.66;5052884;28;20108;-46
2023/07/11 08:30:27;;;;;;;0.00;0.00;;;;;;;24.99;51.47;101139.69;5051592;28;20120;-43
2023/07/11 08:32:53;;;;;;;0.00;0.00;;;;;;;25.04;50.63;101149.28;5052692;28;20108;-43
2023/07/11 08:35:18;;;;;;;0.00;0.00;;;;;;;25.23;50.42;101145.25;5052438;28;20778;-49
2023/07/11 08:37:43;;;;;;;0.00;0.00;;;;;;;25.33;49.42;101134.44;5051594;28;20043;-46
2023/07/11 08:40:18;;;;;;;0.00;0.00;;;;;;;25.26;49.69;101131.97;5052805;28;20053;-45
2023/07/11 08:42:44;;;;;;;0.20;0.00;;;;;;;25.31;48.67;101137.13;5052349;28;20037;-43
2023/07/11 08:45:26;;;;;;;0.00;0.00;;;;;;;25.51;50.79;101144.50;5051839;28;20385;-44
2023/07/11 08:47:51;;;;;;;0.10;0.00;;;;;;;25.53;48.67;101137.41;5052494;28;20032;-42
2023/07/11 08:50:20;;;;;;;0.00;0.00;;;;;;;25.46;48.33;101133.22;5051699;28;20025;-44
2023/07/11 08:52:50;;;;;;;0.00;0.00;;;;;;;25.54;48.89;101140.91;5052348;28;20040;-48
2023/07/11 08:55:30;;;;;;;0.00;0.00;;;;;;;25.60;49.54;101128.44;5052641;28;20108;-44
2023/07/11 08:58:21;;;;;;;0.00;0.00;;;;;;;25.84;50.45;101128.59;5051662;28;20063;-46
2023/07/11 09:00:50;;;;;;;0.00;0.00;;;;;;;25.88;47.07;101118.81;5052321;28;20029;-44
2023/07/11 09:03:42;;;;;;;0.00;0.00;;;;;;;25.96;47.13;101115.06;5052237;28;20485;-42
2023/07/11 09:06:13;;;;;;;0.00;0.00;;;;;;;25.93;46.68;101124.84;5050574;28;20112;-47
2023/07/11 09:08:42;;;;;;;0.00;0.00;;;;;;;25.83;47.90;101128.66;5052029;28;20025;-43
2023/07/11 09:11:27;;;;;;;0.00;0.00;;;;;;;25.87;48.23;101123.22;5052031;28;20036;-45
2023/07/11 09:14:14;;;;;;;0.00;0.00;;;;;;;25.78;47.64;101116.47;5052395;28;20052;-47
2023/07/11 09:16:39;;;;;;;0.00;0.00;;;;;;;25.85;48.01;101114.50;5052259;28;20029;-46
2023/07/11 09:19:27;;;;;;;0.00;0.00;;;;;;;26.12;48.55;101119.88;5051543;28;20082;-45
2023/07/11 09:22:11;;;;;;;0.05;0.00;;;;;;;26.30;46.27;101113.16;5052237;28;20291;-45
2023/07/11 09:25:09;;;;;;;0.00;0.00;;;;;;;26.50;46.87;101115.13;5051948;28;20043;-46
2023/07/11 09:27:39;;;;;;;0.00;0.00;;;;;;;26.70;47.18;101110.97;5054954;28;20048;-44
2023/07/11 09:30:35;;;;;;;0.00;0.00;;;;;;;26.79;46.27;101115.97;5055906;28;20473;-48
2023/07/11 09:33:35;;;;;;;0.00;0.00;;;;;;;26.94;46.92;101096.06;5055234;28;20029;-45
2023/07/11 09:36:03;;;;;;;0.00;0.00;;;;;;;27.25;44.95;101105.56;5049030;28;20110;-48
2023/07/11 09:38:31;;;;;;;0.00;0.00;;;;;;;27.36;44.82;101100.75;5055661;28;20033;-44
2023/07/11 09:41:00;;;;;;;0.20;0.00;;;;;;;27.26;43.26;101104.66;5054936;28;20480;-48
2023/07/11 09:43:26;;;;;;;0.00;0.00;;;;;;;27.37;43.69;101106.88;5055319;28;20032;-43
2023/07/11 09:45:51;;;;;;;0.00;0.00;;;;;;;27.22;42.69;101098.59;5055737;28;20078;-47
2023/07/11 09:48:27;;;;;;;0.00;0.00;;;;;;;27.31;42.61;101112.41;5054700;28;20349;-46
2023/07/11 09:51:05;;;;;;;0.00;0.00;;;;;;;27.39;43.16;101100.66;5055634;28;20096;-48
2023/07/11 09:53:32;;;;;;;0.00;0.00;;;;;;;27.59;43.50;101094.63;5054546;28;20033;-49
2023/07/11 09:56:00;;;;;;;0.00;0.00;;;;;;;27.74;41.71;101102.91;5055476;28;20021;-46
2023/07/11 09:58:33;;;;;;;0.00;0.00;;;;;;;27.72;41.71;101088.84;5055306;28;20484;-48
2023/07/11 10:01:01;;;;;;;0.00;0.00;;;;;;;27.65;42.08;101095.31;5054752;28;20048;-48
2023/07/11 10:03:29;;;;;;;0.00;0.00;;;;;;;27.47;42.36;101089.78;5054872;28;20404;-48
2023/07/11 10:05:54;;;;;;;0.00;0.00;;;;;;;27.52;42.85;101090.47;5055332;28;20025;-44
2023/07/11 10:08:28;;;;;;;0.00;0.00;;;;;;;27.69;42.22;101087.19;5054543;28;20025;-46
2023/07/11 10:11:00;;;;;;;0.10;0.00;;;;;;;28.11;41.72;101087.38;5055144;28;20021;-43
2023/07/11 10:13:26;;;;;;;0.00;0.00;;;;;;;28.31;41.45;101094.53;5054705;28;20469;-44
2023/07/11 10:15:53;;;;;;;0.00;0.00;;;;;;;28.80;40.66;101079.22;5054496;28;20025;-46
2023/07/11 10:18:22;;;;;;;0.00;0.00;;;;;;;28.95;40.41;101085.66;5054998;28;20457;-46
2023/07/11 10:20:52;;;;;;;0.00;0.00;;;;;;;29.39;39.91;101068.69;5055125;28;20028;-48
2023/07/11 10:23:24;;;;;;;0.00;0.00;;;;;;;29.21;37.89;101063.25;5054034;28;20049;-45
2023/07/11 10:26:02;;;;;;;0.00;0.00;;;;;;;29.46;38.50;101075.44;5054991;28;20033;-42
2023/07/11 10:28:32;;;;;;;0.00;0.00;;;;;;;29.52;38.94;101075.16;5054576;28;20031;-43
2023/07/11 10:31:11;;;;;;;0.45;0.35;;;;;;;29.66;38.12;101065.69;5054870;28;20096;-47
2023/07/11 10:33:46;;;;;;;0.00;0.00;;;;;;;29.76;38.29;101079.38;5054312;28;20461;-42
2023/07/11 10:36:19;;;;;;;0.00;0.00;;;;;;;29.68;37.53;101072.66;5053560;28;20131;-45
2023/07/11 10:38:54;;;;;;;0.00;0.00;;;;;;;29.11;38.53;101067.25;5054179;28;20507;-46
2023/07/11 10:41:43;;;;;;;0.00;0.00;;;;;;;29.51;39.16;101056.63;5054440;28;20540;-44
2023/07/11 10:44:20;;;;;;;0.00;0.00;;;;;;;30.10;38.74;101057.38;5053672;28;20025;-43
2023/07/11 10:46:51;;;;;;;0.00;0.00;;;;;;;31.09;37.47;101054.19;5054182;28;20029;-44
2023/07/11 10:49:34;;;;;;;0.00;0.00;;;;;;;31.91;34.84;101061.25;5054528;28;20029;-43
2023/07/11 10:52:30;;;;;;;0.00;0.00;;;;;;;31.76;34.87;101056.78;5054159;28;20040;-44
2023/07/11 10:55:08;;;;;;;0.00;0.00;;;;;;;31.06;34.84;101055.22;5054283;28;20086;-46
2023/07/11 10:57:44;;;;;;;0.00;0.00;;;;;;;30.78;36.06;101051.34;5053523;28;20029;-45
2023/07/11 11:00:16;;;;;;;0.00;0.00;;;;;;;30.37;35.90;101051.63;5054167;28;20496;-45
2023/07/11 11:03:19;;;;;;;0.00;0.00;;;;;;;30.16;36.51;101045.59;5053753;28;20104;-46
2023/07/11 11:05:59;;;;;;;0.00;0.00;;;;;;;29.78;36.72;101038.53;5052988;28;20551;-49
2023/07/11 11:08:37;;;;;;;0.00;0.00;;;;;;;30.00;36.96;101038.38;5053752;28;20033;-50
2023/07/11 11:11:24;;;;;;;0.00;0.00;;;;;;;30.47;37.31;101042.28;5053497;28;20025;-45
2023/07/11 11:14:05;;;;;;;0.00;0.00;;;;;;;30.96;35.03;101040.66;5053884;28;20469;-46
2023/07/11 11:16:35;;;;;;;0.00;0.00;;;;;;;30.93;34.10;101035.50;5053760;28;20052;-47
2023/07/11 11:19:16;;;;;;;0.20;0.00;;;;;;;31.10;34.87;101030.13;5053363;28;20025;-47
2023/07/11 11:21:53;;;;;;;0.00;0.00;;;;;;;31.29;34.96;101023.84;5053386;28;20055;-45
2023/07/11 11:24:51;;;;;;;0.00;0.00;;;;;;;31.33;35.39;101026.22;5053626;28;20048;-47
2023/07/11 11:27:25;;;;;;;0.00;0.00;;;;;;;31.01;33.65;101027.94;5053917;28;20021;-49